Portada
METAR-TAF:

METAR-TAF

Aeroports :

Aeroport de Svalbard-Longyear

Longyearbyen, Noruega

latitud: 78-15N, longitud: 015-28E, altitud: 2 m

Observació

L'informe es va fer fa 57 minuts, a les 18:50 UTC
Vent 3 kt del Nord/Nord-Est
Temperatura 1°C
Humitat 64%
Pressió 1009 hPa
Visibilitat 10 km o més
Escasses núvols a una alçada de 2500 ft
Cel ennuvolat a una alçada de 8500 ft

METAR: ENSB 221850Z 03003KT 9999 FEW025 BKN085 01/M05 Q1009 RMK WIND 1400FT 08003KT

Hora: 21:47 (19:47 UTC)

Pronòstic

Pronòstic vàlid del 22 a les 18 UTC al 23 a les 18 UTC
Vent 8 kt amb direcció variable
Visibilitat 10 km o més
Escasses núvols a una alçada de 1500 ft
Cel ennuvolat a una alçada de 3000 ft
Evolucionant progressivament
l' 23 a les 03 UTC al 23 a les 06 UTC
Vent 10 kt del Oest/Sud-Oest

TAF: ENSB 2218/2318 VRB08KT 9999 FEW015 BKN030 BECMG 2303/2306 25010KT

Observacions i pronòstics meteorològics de més de 4000 aeroports (METAR i TAF).

Les estacions disponibles són els punts grocs i vermells al mapa.

Posi el ratolí al punt desitjat per veure el nom de l'estació.

Feu clic per veure les observacions i els pronòstics meteorològics.

Per canviar el mapa: feu clic els botons verds amb una creu de color negre per apropar; al botó verd amb un guió per allunyar la imatge; o en les fletxes verdes per a mapes adjacents.


METAR-TAF: